createdAt,value
2018-02-17T00:00:04.836Z,98981.00
2018-02-17T00:02:33.304Z,98980.91
2018-02-17T00:05:01.636Z,98977.73
2018-02-17T00:07:29.967Z,98982.66
2018-02-17T00:09:59.024Z,98983.39
2018-02-17T00:12:27.353Z,98979.50
2018-02-17T00:14:55.744Z,98979.21
2018-02-17T00:17:24.068Z,98976.45
2018-02-17T00:19:53.333Z,98968.59
2018-02-17T00:22:21.681Z,98963.64
2018-02-17T00:24:50.012Z,98954.97
2018-02-17T00:27:19.352Z,98951.46
2018-02-17T00:29:47.676Z,98944.20
2018-02-17T00:32:16.763Z,98934.73
2018-02-17T00:34:45.120Z,98939.97
2018-02-17T00:37:13.817Z,98938.86
2018-02-17T00:39:42.189Z,98950.83
2018-02-17T00:42:10.523Z,98950.27
2018-02-17T00:44:38.897Z,98950.98
2018-02-17T00:47:07.259Z,98954.92
2018-02-17T00:49:36.356Z,98948.83
2018-02-17T00:52:05.553Z,98942.20
2018-02-17T00:54:33.880Z,98929.06
2018-02-17T00:57:02.736Z,98923.49
2018-02-17T00:59:31.128Z,98913.22
2018-02-17T01:01:59.472Z,98906.75
2018-02-17T01:04:27.800Z,98901.44
2018-02-17T01:06:56.154Z,98893.52
2018-02-17T01:09:25.580Z,98886.89
2018-02-17T01:11:53.930Z,98881.61
2018-02-17T01:14:22.319Z,98876.53
2018-02-17T01:16:50.656Z,98872.34
2018-02-17T01:19:18.985Z,98876.71
2018-02-17T01:21:47.346Z,98873.67
2018-02-17T01:24:15.720Z,98869.02
2018-02-17T01:26:44.051Z,98874.30
2018-02-17T01:29:14.097Z,98864.91
2018-02-17T01:31:42.426Z,98857.33
2018-02-17T01:34:10.765Z,98851.13
2018-02-17T01:36:39.116Z,98854.80
2018-02-17T01:39:07.966Z,98847.33
2018-02-17T01:41:36.368Z,98838.18
2018-02-17T01:44:04.711Z,98822.07
2018-02-17T01:46:33.316Z,98822.23
2018-02-17T01:49:01.733Z,98817.69
2018-02-17T01:51:30.073Z,98817.59
2018-02-17T01:53:58.487Z,98809.11
2018-02-17T01:56:27.641Z,98804.36
2018-02-17T01:58:56.853Z,98796.22
2018-02-17T02:01:25.241Z,98787.77
2018-02-17T02:03:53.604Z,98770.00
2018-02-17T02:06:21.971Z,98766.80
2018-02-17T02:08:51.184Z,98764.94
2018-02-17T02:11:19.525Z,98778.26
2018-02-17T02:13:49.042Z,98789.00
2018-02-17T02:16:17.422Z,98794.72
2018-02-17T02:18:45.769Z,98790.22
2018-02-17T02:21:14.284Z,98771.02
2018-02-17T02:23:43.403Z,98767.98
2018-02-17T02:26:12.520Z,98763.95
2018-02-17T02:28:40.880Z,98743.27
2018-02-17T02:31:09.325Z,98752.77
2018-02-17T02:33:37.732Z,98748.92
2018-02-17T02:36:06.832Z,98746.56
2018-02-17T02:38:35.161Z,98759.39
2018-02-17T02:41:03.553Z,98772.98
2018-02-17T02:43:32.349Z,98782.02
2018-02-17T02:46:00.681Z,98784.91
2018-02-17T02:48:29.581Z,98787.03
2018-02-17T02:50:57.914Z,98782.81
2018-02-17T02:53:26.473Z,98786.08
2018-02-17T02:55:54.821Z,98803.07
2018-02-17T02:58:23.158Z,98803.98
2018-02-17T03:00:52.273Z,98790.32
2018-02-17T03:03:20.597Z,98779.25
2018-02-17T03:05:48.971Z,98771.00
2018-02-17T03:08:17.320Z,98773.05
2018-02-17T03:10:45.930Z,98772.31
2018-02-17T03:13:21.104Z,98767.55
2018-02-17T03:15:49.435Z,98755.23
2018-02-17T03:18:17.786Z,98749.98
2018-02-17T03:20:47.756Z,98741.66
2018-02-17T03:23:16.133Z,98729.91
2018-02-17T03:25:44.457Z,98730.05
2018-02-17T03:28:13.056Z,98728.14
2018-02-17T03:30:41.406Z,98717.45
2018-02-17T03:33:10.504Z,98711.14
2018-02-17T03:35:39.616Z,98717.59
2018-02-17T03:38:07.940Z,98714.94
2018-02-17T03:40:36.365Z,98720.81
2018-02-17T03:43:05.183Z,98721.00
2018-02-17T03:45:33.505Z,98716.54
2018-02-17T03:48:01.852Z,98712.19
2018-02-17T03:50:30.884Z,98690.31
2018-02-17T03:52:59.699Z,98698.14
2018-02-17T03:55:28.015Z,98682.44
2018-02-17T03:57:56.357Z,98662.21
2018-02-17T04:00:24.717Z,98658.09
2018-02-17T04:02:53.063Z,98657.65
2018-02-17T04:05:21.392Z,98639.83
2018-02-17T04:07:49.752Z,98630.36
2018-02-17T04:10:18.076Z,98640.17
2018-02-17T04:12:46.452Z,98642.02
2018-02-17T04:15:14.776Z,98638.63
2018-02-17T04:17:43.114Z,98636.71
2018-02-17T04:20:11.472Z,98617.09
2018-02-17T04:22:39.792Z,98603.96
2018-02-17T04:25:08.124Z,98600.83
2018-02-17T04:27:36.499Z,98587.06
2018-02-17T04:30:04.913Z,98566.48
2018-02-17T04:32:33.247Z,98569.05
2018-02-17T04:35:01.640Z,98564.19
2018-02-17T04:37:30.265Z,98569.19
2018-02-17T04:40:04.212Z,98579.77
2018-02-17T04:42:34.923Z,98594.31
2018-02-17T04:45:04.164Z,98599.42
2018-02-17T05:01:19.224Z,98589.41
2018-02-17T05:03:47.567Z,98574.41
2018-02-17T05:06:26.690Z,98559.13
2018-02-17T05:08:56.768Z,98555.56
2018-02-17T05:11:25.104Z,98554.80
2018-02-17T05:13:53.444Z,98555.48
2018-02-17T05:16:26.504Z,98567.72
2018-02-17T05:19:05.660Z,98575.76
2018-02-17T05:21:33.999Z,98591.23
2018-02-17T05:37:28.804Z,98535.83
2018-02-17T05:40:01.528Z,98520.23
2018-02-17T05:42:31.567Z,98524.66
2018-02-17T05:45:01.624Z,98523.47
2018-02-17T05:47:32.242Z,98524.84
2018-02-17T05:50:00.559Z,98520.03
2018-02-17T05:52:29.099Z,98526.95
2018-02-17T05:54:58.227Z,98525.27
2018-02-17T05:57:26.565Z,98534.41
2018-02-17T05:59:55.380Z,98536.78
2018-02-17T06:02:23.816Z,98524.88
2018-02-17T06:04:52.883Z,98509.43
2018-02-17T06:07:21.212Z,98513.09
2018-02-17T06:09:50.780Z,98515.21
2018-02-17T06:12:19.100Z,98501.45
2018-02-17T06:14:47.546Z,98483.95
2018-02-17T06:17:15.903Z,98479.85
2018-02-17T06:19:44.995Z,98468.67
2018-02-17T06:22:13.307Z,98444.59
2018-02-17T06:24:41.659Z,98424.27
2018-02-17T06:27:10.446Z,98415.53
2018-02-17T06:29:39.523Z,98414.02
2018-02-17T06:32:07.888Z,98407.44
2018-02-17T06:34:36.199Z,98403.42
2018-02-17T06:37:04.511Z,98414.95
2018-02-17T06:39:32.868Z,98427.48
2018-02-17T06:42:01.964Z,98435.22
2018-02-17T06:44:30.281Z,98451.66
2018-02-17T06:46:58.631Z,98449.70
2018-02-17T06:49:26.963Z,98432.94
2018-02-17T06:51:55.309Z,98410.06
2018-02-17T06:54:24.143Z,98418.86
2018-02-17T06:56:53.959Z,98406.27
2018-02-17T06:59:22.267Z,98396.19
2018-02-17T07:01:50.684Z,98395.72
2018-02-17T07:04:19.015Z,98393.28
2018-02-17T07:06:47.349Z,98431.67
2018-02-17T07:09:15.729Z,98472.72
2018-02-17T07:11:43.804Z,98497.40
2018-02-17T07:14:12.133Z,98505.89
2018-02-17T07:16:41.434Z,98506.05
2018-02-17T07:19:09.753Z,98484.45
2018-02-17T07:21:38.068Z,98461.92
2018-02-17T07:24:06.710Z,98457.41
2018-02-17T07:26:35.028Z,98469.41
2018-02-17T07:29:04.101Z,98469.78
2018-02-17T07:31:32.451Z,98473.81
2018-02-17T07:34:01.276Z,98461.84
2018-02-17T07:36:30.356Z,98448.43
2018-02-17T07:38:58.722Z,98433.05
2018-02-17T07:41:27.805Z,98429.24
2018-02-17T07:43:56.324Z,98428.49
2018-02-17T07:46:24.681Z,98418.84
2018-02-17T07:48:53.000Z,98420.53
2018-02-17T07:51:21.319Z,98422.30
2018-02-17T07:53:50.114Z,98415.59
2018-02-17T07:56:18.420Z,98434.03
2018-02-17T07:58:46.808Z,98451.95
2018-02-17T08:01:15.166Z,98434.95
2018-02-17T08:03:43.581Z,98433.39
2018-02-17T08:06:11.907Z,98439.73
2018-02-17T08:08:40.244Z,98434.84
2018-02-17T08:11:09.321Z,98421.26
2018-02-17T08:13:38.412Z,98411.99
2018-02-17T08:16:07.535Z,98410.48
2018-02-17T08:18:35.857Z,98402.66
2018-02-17T08:21:04.173Z,98395.97
2018-02-17T08:23:32.804Z,98407.91
2018-02-17T08:26:01.120Z,98404.45
2018-02-17T08:28:29.500Z,98386.13
2018-02-17T08:30:57.868Z,98381.36
2018-02-17T08:33:26.180Z,98375.73
2018-02-17T08:35:55.312Z,98371.39
2018-02-17T08:38:23.669Z,98359.03
2018-02-17T08:40:52.468Z,98360.44
2018-02-17T08:43:20.775Z,98362.59
2018-02-17T08:45:49.132Z,98363.74
2018-02-17T08:48:17.443Z,98357.29
2018-02-17T08:50:45.761Z,98352.94
2018-02-17T08:53:14.116Z,98353.52
2018-02-17T08:55:43.868Z,98358.15
2018-02-17T08:58:12.184Z,98355.24
2018-02-17T09:00:40.575Z,98342.00
2018-02-17T09:03:08.894Z,98347.23
2018-02-17T09:05:37.201Z,98339.16
2018-02-17T09:08:05.573Z,98330.50
2018-02-17T09:10:47.394Z,98336.97
2018-02-17T09:13:15.830Z,98350.14
2018-02-17T09:15:44.144Z,98334.87
2018-02-17T09:18:12.217Z,98320.89
2018-02-17T09:20:43.784Z,98318.95
2018-02-17T09:23:12.160Z,98323.53
2018-02-17T09:25:40.492Z,98318.25
2018-02-17T09:28:08.852Z,98294.48
2018-02-17T09:30:37.157Z,98286.84
2018-02-17T09:33:05.460Z,98285.59
2018-02-17T09:35:34.430Z,98283.23
2018-02-17T09:38:02.735Z,98285.02
2018-02-17T09:40:31.043Z,98281.56
2018-02-17T09:43:00.168Z,98275.94
2018-02-17T09:45:28.468Z,98272.39
2018-02-17T09:47:56.778Z,98266.51
2018-02-17T09:50:25.392Z,98264.46
2018-02-17T09:52:53.725Z,98259.66
2018-02-17T09:55:22.038Z,98261.75
2018-02-17T09:57:50.427Z,98263.40
2018-02-17T10:00:19.521Z,98263.83
2018-02-17T10:02:47.824Z,98266.36
2018-02-17T10:05:16.176Z,98259.73
2018-02-17T10:07:44.488Z,98259.81
2018-02-17T10:10:14.009Z,98257.84
2018-02-17T10:12:42.376Z,98252.91
2018-02-17T10:15:10.692Z,98266.06
2018-02-17T10:17:39.278Z,98265.79
2018-02-17T10:20:07.649Z,98267.91
2018-02-17T10:22:36.553Z,98270.27
2018-02-17T10:25:04.858Z,98271.91
2018-02-17T10:27:33.205Z,98274.79
2018-02-17T10:30:01.528Z,98278.45
2018-02-17T10:32:29.873Z,98266.56
2018-02-17T10:34:58.736Z,98280.86
2018-02-17T10:37:27.045Z,98280.74
2018-02-17T10:39:55.592Z,98290.05
2018-02-17T10:42:25.035Z,98301.82
2018-02-17T10:44:53.348Z,98310.64
2018-02-17T10:47:21.712Z,98313.25
2018-02-17T10:49:50.032Z,98320.75
2018-02-17T10:52:18.340Z,98324.99
2018-02-17T10:54:46.776Z,98330.16
2018-02-17T10:57:15.461Z,98328.09
2018-02-17T10:59:43.964Z,98328.82
2018-02-17T11:02:12.336Z,98323.87
2018-02-17T11:04:40.652Z,98323.72
2018-02-17T11:07:08.971Z,98325.77
2018-02-17T11:09:37.892Z,98329.47
2018-02-17T11:12:06.272Z,98339.29
2018-02-17T11:14:34.595Z,98335.91
2018-02-17T11:17:02.961Z,98333.61
2018-02-17T11:19:31.280Z,98338.48
2018-02-17T11:21:59.610Z,98329.34
2018-02-17T11:24:27.980Z,98330.44
2018-02-17T11:26:56.318Z,98329.41
2018-02-17T11:29:24.627Z,98331.03
2018-02-17T11:31:54.152Z,98328.76
2018-02-17T11:34:22.496Z,98323.39
2018-02-17T11:36:50.806Z,98314.70
2018-02-17T11:39:19.175Z,98315.83
2018-02-17T11:41:48.261Z,98314.28
2018-02-17T11:44:17.340Z,98323.89
2018-02-17T11:46:45.687Z,98316.98
2018-02-17T11:49:13.995Z,98294.00
2018-02-17T11:51:42.312Z,98305.47
2018-02-17T11:54:11.456Z,98302.08
2018-02-17T11:56:39.768Z,98294.84
2018-02-17T11:59:08.096Z,98289.56
2018-02-17T12:01:36.517Z,98301.33
2018-02-17T12:04:05.805Z,98303.55
2018-02-17T12:06:34.893Z,98296.69
2018-02-17T12:09:03.268Z,98291.08
2018-02-17T12:11:31.582Z,98294.52
2018-02-17T12:13:59.912Z,98305.77
2018-02-17T12:16:28.285Z,98297.77
2018-02-17T12:18:56.620Z,98298.84
2018-02-17T12:21:24.965Z,98299.37
2018-02-17T12:23:53.349Z,98293.58
2018-02-17T12:26:21.665Z,98298.61
2018-02-17T12:28:49.987Z,98302.58
2018-02-17T12:31:18.344Z,98297.17
2018-02-17T12:33:46.660Z,98287.83
2018-02-17T12:36:14.967Z,98276.27
2018-02-17T12:38:43.328Z,98266.27
2018-02-17T12:41:12.408Z,98266.86
2018-02-17T12:43:41.641Z,98263.52
2018-02-17T12:46:10.012Z,98266.17
2018-02-17T12:48:38.333Z,98254.38
2018-02-17T12:51:06.644Z,98254.52
2018-02-17T12:53:35.012Z,98260.00
2018-02-17T12:56:03.332Z,98258.88
2018-02-17T12:58:31.646Z,98251.82
2018-02-17T13:01:00.050Z,98259.27
2018-02-17T13:03:28.388Z,98258.16
2018-02-17T13:05:56.716Z,98262.18
2018-02-17T13:08:25.069Z,98260.48
2018-02-17T13:10:53.384Z,98257.80
2018-02-17T13:13:21.708Z,98255.55
2018-02-17T13:15:50.537Z,98260.32
2018-02-17T13:18:19.629Z,98258.59
2018-02-17T13:20:47.948Z,98264.38
2018-02-17T13:23:16.868Z,98262.33
2018-02-17T13:25:46.328Z,98262.79
2018-02-17T13:28:25.293Z,98265.98
2018-02-17T13:30:53.608Z,98269.56
2018-02-17T13:33:21.942Z,98272.94
2018-02-17T13:35:50.336Z,98277.30
2018-02-17T13:38:18.664Z,98272.59
2018-02-17T13:40:47.004Z,98266.53
2018-02-17T13:43:15.358Z,98266.63
2018-02-17T13:45:43.436Z,98266.41
2018-02-17T13:48:11.753Z,98281.37
2018-02-17T13:50:40.220Z,98274.55
2018-02-17T13:53:08.536Z,98276.19
2018-02-17T13:55:36.852Z,98279.28
2018-02-17T13:58:05.237Z,98283.73
2018-02-17T14:00:33.552Z,98282.24
2018-02-17T14:03:01.866Z,98289.95
2018-02-17T14:05:30.234Z,98281.95
2018-02-17T14:07:59.081Z,98284.63
2018-02-17T14:10:27.519Z,98290.33
2018-02-17T14:12:55.849Z,98294.59
2018-02-17T14:15:24.936Z,98293.34
2018-02-17T14:17:53.254Z,98304.61
2018-02-17T14:20:21.612Z,98302.67
2018-02-17T14:22:49.925Z,98296.95
2018-02-17T14:25:18.248Z,98299.11
2018-02-17T14:27:46.584Z,98296.43
2018-02-17T14:30:14.942Z,98299.17
2018-02-17T14:32:43.312Z,98299.17
2018-02-17T14:35:11.640Z,98299.11
2018-02-17T14:37:40.140Z,98300.38
2018-02-17T14:40:08.550Z,98296.57
2018-02-17T14:42:36.907Z,98304.25
2018-02-17T14:45:05.229Z,98308.83
2018-02-17T14:47:33.600Z,98309.71
2018-02-17T14:50:01.912Z,98303.77
2018-02-17T14:52:30.237Z,98310.80
2018-02-17T14:54:58.912Z,98315.42
2018-02-17T14:57:27.220Z,98325.67
2018-02-17T14:59:55.540Z,98329.13
2018-02-17T15:02:23.988Z,98336.68
2018-02-17T15:04:52.733Z,98343.39
2018-02-17T15:07:21.072Z,98351.42
2018-02-17T15:09:49.435Z,98355.05
2018-02-17T15:12:17.868Z,98372.95
2018-02-17T15:14:46.190Z,98373.02
2018-02-17T15:17:16.140Z,98377.48
2018-02-17T15:19:44.452Z,98373.27
2018-02-17T15:22:13.754Z,98373.44
2018-02-17T15:24:42.213Z,98368.77
2018-02-17T15:30:21.268Z,98380.16
2018-02-17T15:32:51.514Z,98374.36
2018-02-17T15:35:20.004Z,98376.91
2018-02-17T15:37:48.320Z,98380.08
2018-02-17T15:40:17.324Z,98381.39
2018-02-17T15:42:45.656Z,98385.89
2018-02-17T15:45:14.040Z,98396.77
2018-02-17T15:47:42.524Z,98392.05
2018-02-17T15:50:11.075Z,98389.88
2018-02-17T15:52:40.044Z,98396.34
2018-02-17T15:55:09.578Z,98401.91
2018-02-17T15:57:38.303Z,98408.20
2018-02-17T16:00:07.056Z,98414.47
2018-02-17T16:02:35.696Z,98421.28
2018-02-17T16:05:05.504Z,98421.28
2018-02-17T16:07:36.171Z,98428.08
2018-02-17T16:10:05.423Z,98430.86
2018-02-17T16:12:35.138Z,98434.79
2018-02-17T16:15:03.692Z,98434.35
2018-02-17T16:17:32.360Z,98434.35
2018-02-17T16:20:01.127Z,98441.47
2018-02-17T16:22:31.168Z,98442.44
2018-02-17T16:25:00.260Z,98441.64
2018-02-17T16:30:29.729Z,98453.83
2018-02-17T16:32:58.534Z,98458.84
2018-02-17T16:35:27.289Z,98459.70
2018-02-17T17:16:56.843Z,98533.94
2018-02-17T17:19:26.130Z,98543.11
2018-02-17T17:21:54.729Z,98551.03
2018-02-17T17:24:23.250Z,98557.30
2018-02-17T17:26:51.890Z,98563.66
2018-02-17T17:29:20.424Z,98573.13
2018-02-17T17:31:48.986Z,98578.08
2018-02-17T17:34:17.707Z,98580.38
2018-02-17T17:36:46.892Z,98579.39
2018-02-17T17:39:16.139Z,98579.91
2018-02-17T17:41:44.774Z,98587.53
2018-02-17T17:44:13.326Z,98587.13
2018-02-17T17:46:41.950Z,98584.86
2018-02-17T17:49:10.497Z,98593.00
2018-02-17T17:51:39.129Z,98595.05
2018-02-17T17:54:07.642Z,98601.88
2018-02-17T17:56:36.239Z,98612.27
2018-02-17T17:59:04.818Z,98614.70
2018-02-17T18:01:33.584Z,98617.83
2018-02-17T18:04:02.315Z,98624.78
2018-02-17T18:06:30.901Z,98623.98
2018-02-17T18:08:59.701Z,98625.91
2018-02-17T18:11:28.643Z,98633.19
2018-02-17T18:13:57.179Z,98632.85
2018-02-17T18:16:27.033Z,98637.16
2018-02-17T18:18:55.543Z,98641.53
2018-02-17T18:21:24.165Z,98645.38
2018-02-17T18:23:53.153Z,98653.03
2018-02-17T18:26:21.722Z,98651.08
2018-02-17T18:28:50.892Z,98663.08
2018-02-17T18:31:19.580Z,98669.23
2018-02-17T18:33:48.101Z,98668.47
2018-02-17T18:36:16.843Z,98672.53
2018-02-17T18:38:45.470Z,98675.66
2018-02-17T18:41:15.420Z,98680.14
2018-02-17T18:43:43.948Z,98681.45
2018-02-17T18:46:12.587Z,98685.73
2018-02-17T18:48:41.082Z,98691.14
2018-02-17T18:51:09.628Z,98696.41
2018-02-17T18:53:38.582Z,98700.98
2018-02-17T18:56:07.674Z,98704.14
2018-02-17T18:58:36.024Z,98705.97
2018-02-17T19:01:05.009Z,98711.38
2018-02-17T19:03:33.638Z,98713.70
2018-02-17T19:06:02.136Z,98712.91
2018-02-17T19:08:31.938Z,98710.00
2018-02-17T19:11:00.869Z,98712.45
2018-02-17T19:13:29.570Z,98708.27
2018-02-17T19:15:58.133Z,98707.59
2018-02-17T19:18:26.691Z,98705.52
2018-02-17T19:20:55.459Z,98710.47
2018-02-17T19:23:25.271Z,98716.66
2018-02-17T19:25:54.130Z,98713.83
2018-02-17T19:28:23.231Z,98708.88
2018-02-17T19:30:52.416Z,98711.53
2018-02-17T19:33:21.653Z,98712.33
2018-02-17T19:35:50.986Z,98713.13
2018-02-17T19:38:19.778Z,98717.67
2018-02-17T19:40:48.872Z,98723.20
2018-02-17T19:43:18.032Z,98721.41
2018-02-17T19:45:46.553Z,98724.52
2018-02-17T19:48:15.416Z,98723.14
2018-02-17T19:50:44.551Z,98729.66
2018-02-17T19:53:13.592Z,98726.11
2018-02-17T19:55:43.357Z,98729.86
2018-02-17T19:58:11.955Z,98728.86
2018-02-17T20:00:40.540Z,98732.19
2018-02-17T20:03:09.011Z,98734.39
2018-02-17T20:05:38.086Z,98737.94
2018-02-17T20:08:08.073Z,98742.79
2018-02-17T20:10:37.268Z,98744.34
2018-02-17T20:13:05.807Z,98749.78
2018-02-17T20:15:34.490Z,98753.61
2018-02-17T20:18:03.030Z,98762.98
2018-02-17T20:20:31.899Z,98760.08
2018-02-17T20:23:00.483Z,98769.64
2018-02-17T20:25:29.024Z,98768.36
2018-02-17T20:27:57.909Z,98771.42
2018-02-17T20:30:26.462Z,98775.20
2018-02-17T20:32:55.050Z,98776.59
2018-02-17T20:35:25.732Z,98778.11
2018-02-17T20:37:55.918Z,98776.55
2018-02-17T20:40:24.814Z,98784.65
2018-02-17T20:42:53.203Z,98782.05
2018-02-17T20:45:22.142Z,98785.34
2018-02-17T20:47:51.637Z,98792.77
2018-02-17T20:50:21.177Z,98789.05
2018-02-17T20:52:49.618Z,98792.06
2018-02-17T20:55:17.987Z,98797.45
2018-02-17T20:57:46.775Z,98791.95
2018-02-17T21:00:15.225Z,98804.23
2018-02-17T21:02:44.063Z,98799.56
2018-02-17T21:05:13.525Z,98804.59
2018-02-17T21:07:42.283Z,98805.53
2018-02-17T21:10:11.162Z,98806.58
2018-02-17T21:12:41.379Z,98809.20
2018-02-17T21:15:09.909Z,98810.52
2018-02-17T21:17:38.407Z,98808.38
2018-02-17T21:20:07.124Z,98819.20
2018-02-17T21:22:35.728Z,98815.86
2018-02-17T21:25:05.222Z,98820.23
2018-02-17T21:27:35.037Z,98822.18
2018-02-17T21:30:05.058Z,98821.79
2018-02-17T21:32:34.417Z,98823.13
2018-02-17T21:35:04.834Z,98831.95
2018-02-17T21:37:33.977Z,98841.71
2018-02-17T21:40:02.511Z,98854.80
2018-02-17T21:42:30.938Z,98857.45
2018-02-17T21:44:59.660Z,98853.44
2018-02-17T21:47:28.602Z,98855.47
2018-02-17T21:49:57.128Z,98856.03
2018-02-17T21:52:25.751Z,98861.61
2018-02-17T21:54:54.388Z,98860.55
2018-02-17T21:57:23.827Z,98862.59
2018-02-17T21:59:52.554Z,98867.12
2018-02-17T22:02:21.480Z,98863.34
2018-02-17T22:04:51.795Z,98863.45
2018-02-17T22:07:20.623Z,98875.03
2018-02-17T22:09:49.636Z,98870.72
2018-02-17T22:12:18.734Z,98879.73
2018-02-17T22:14:47.770Z,98883.64
2018-02-17T22:17:17.047Z,98887.64
2018-02-17T22:19:46.139Z,98893.38
2018-02-17T22:22:14.804Z,98889.65
2018-02-17T22:24:43.455Z,98886.97
2018-02-17T22:27:11.915Z,98894.67
2018-02-17T22:29:40.890Z,98891.33
2018-02-17T22:32:10.360Z,98895.08
2018-02-17T22:34:38.967Z,98899.38
2018-02-17T22:37:07.580Z,98899.98
2018-02-17T22:39:36.948Z,98903.48
2018-02-17T22:42:05.518Z,98904.86
2018-02-17T22:44:34.645Z,98902.41
2018-02-17T22:47:03.686Z,98911.56
2018-02-17T22:49:32.305Z,98915.45
2018-02-17T22:52:04.972Z,98920.29
2018-02-17T22:54:33.534Z,98921.61
2018-02-17T22:57:04.220Z,98920.28
2018-02-17T22:59:32.653Z,98917.52
2018-02-17T23:02:02.198Z,98923.45
2018-02-17T23:04:32.528Z,98922.14
2018-02-17T23:07:03.639Z,98921.12
2018-02-17T23:09:32.450Z,98923.34
2018-02-17T23:12:01.244Z,98922.17
2018-02-17T23:14:30.190Z,98918.22
2018-02-17T23:16:59.705Z,98923.39
2018-02-17T23:19:28.404Z,98926.16
2018-02-17T23:21:57.371Z,98926.19
2018-02-17T23:24:26.634Z,98929.81
2018-02-17T23:26:55.558Z,98934.39
2018-02-17T23:29:24.021Z,98933.40
2018-02-17T23:31:52.639Z,98932.91
2018-02-17T23:34:22.294Z,98937.64
2018-02-17T23:36:51.296Z,98941.20
2018-02-17T23:39:19.794Z,98942.59
2018-02-17T23:41:48.424Z,98947.34
2018-02-17T23:44:16.955Z,98956.69
2018-02-17T23:46:45.561Z,98962.77
2018-02-17T23:49:14.408Z,98961.55
2018-02-17T23:51:43.498Z,98964.47
2018-02-17T23:54:12.172Z,98965.70
2018-02-17T23:56:40.752Z,98972.87
2018-02-17T23:59:09.289Z,98972.02
